sensor_id;sensor_type;location;lat;lon;timestamp;P1;durP1;ratioP1;P2;durP2;ratioP2
4084;SDS011;2057;50.858;6.572;2022-12-07T00:01:26;49.13;;;29.27;;
4084;SDS011;2057;50.858;6.572;2022-12-07T00:03:56;63.80;;;29.90;;
4084;SDS011;2057;50.858;6.572;2022-12-07T00:06:29;55.40;;;31.13;;
4084;SDS011;2057;50.858;6.572;2022-12-07T00:09:12;57.25;;;32.38;;
4084;SDS011;2057;50.858;6.572;2022-12-07T00:11:40;56.40;;;31.95;;
4084;SDS011;2057;50.858;6.572;2022-12-07T00:14:06;51.20;;;28.47;;
4084;SDS011;2057;50.858;6.572;2022-12-07T00:16:34;53.10;;;31.35;;
4084;SDS011;2057;50.858;6.572;2022-12-07T00:19:00;46.00;;;26.63;;
4084;SDS011;2057;50.858;6.572;2022-12-07T00:21:28;49.47;;;28.75;;
4084;SDS011;2057;50.858;6.572;2022-12-07T00:23:55;49.67;;;29.95;;
4084;SDS011;2057;50.858;6.572;2022-12-07T00:26:22;42.38;;;25.33;;
4084;SDS011;2057;50.858;6.572;2022-12-07T00:28:56;43.70;;;28.63;;
4084;SDS011;2057;50.858;6.572;2022-12-07T00:31:25;51.38;;;29.13;;
4084;SDS011;2057;50.858;6.572;2022-12-07T00:33:54;52.78;;;26.42;;
4084;SDS011;2057;50.858;6.572;2022-12-07T00:36:22;60.03;;;27.60;;
4084;SDS011;2057;50.858;6.572;2022-12-07T00:38:48;41.53;;;28.67;;
4084;SDS011;2057;50.858;6.572;2022-12-07T00:41:15;50.60;;;27.47;;
4084;SDS011;2057;50.858;6.572;2022-12-07T00:43:42;46.92;;;27.92;;
4084;SDS011;2057;50.858;6.572;2022-12-07T00:46:09;64.35;;;30.85;;
4084;SDS011;2057;50.858;6.572;2022-12-07T00:48:35;57.63;;;31.50;;
4084;SDS011;2057;50.858;6.572;2022-12-07T00:51:00;52.20;;;30.30;;
4084;SDS011;2057;50.858;6.572;2022-12-07T00:53:27;50.05;;;29.00;;
4084;SDS011;2057;50.858;6.572;2022-12-07T00:55:53;50.47;;;27.80;;
4084;SDS011;2057;50.858;6.572;2022-12-07T00:58:18;58.30;;;29.10;;
4084;SDS011;2057;50.858;6.572;2022-12-07T01:00:44;64.85;;;30.48;;
4084;SDS011;2057;50.858;6.572;2022-12-07T01:03:11;59.33;;;29.77;;
4084;SDS011;2057;50.858;6.572;2022-12-07T01:05:38;51.88;;;29.85;;
4084;SDS011;2057;50.858;6.572;2022-12-07T01:08:03;51.75;;;31.35;;
4084;SDS011;2057;50.858;6.572;2022-12-07T01:10:29;49.80;;;28.20;;
4084;SDS011;2057;50.858;6.572;2022-12-07T01:12:56;47.30;;;30.50;;
4084;SDS011;2057;50.858;6.572;2022-12-07T01:15:22;50.50;;;30.03;;
4084;SDS011;2057;50.858;6.572;2022-12-07T01:17:47;47.30;;;29.67;;
4084;SDS011;2057;50.858;6.572;2022-12-07T01:20:12;43.53;;;27.00;;
4084;SDS011;2057;50.858;6.572;2022-12-07T01:22:39;55.40;;;29.50;;
4084;SDS011;2057;50.858;6.572;2022-12-07T01:25:06;48.63;;;27.63;;
4084;SDS011;2057;50.858;6.572;2022-12-07T01:27:33;50.80;;;29.77;;
4084;SDS011;2057;50.858;6.572;2022-12-07T01:29:59;53.25;;;28.92;;
4084;SDS011;2057;50.858;6.572;2022-12-07T01:32:25;47.90;;;28.50;;
4084;SDS011;2057;50.858;6.572;2022-12-07T01:34:50;53.67;;;29.60;;
4084;SDS011;2057;50.858;6.572;2022-12-07T01:37:16;41.53;;;27.23;;
4084;SDS011;2057;50.858;6.572;2022-12-07T01:39:41;52.87;;;29.20;;
4084;SDS011;2057;50.858;6.572;2022-12-07T01:42:10;62.43;;;28.10;;
4084;SDS011;2057;50.858;6.572;2022-12-07T01:47:39;45.08;;;26.05;;
4084;SDS011;2057;50.858;6.572;2022-12-07T01:50:06;52.38;;;27.15;;
4084;SDS011;2057;50.858;6.572;2022-12-07T01:52:31;46.03;;;27.50;;
4084;SDS011;2057;50.858;6.572;2022-12-07T01:55:02;46.55;;;30.23;;
4084;SDS011;2057;50.858;6.572;2022-12-07T01:57:31;51.70;;;29.17;;
4084;SDS011;2057;50.858;6.572;2022-12-07T01:59:59;51.03;;;28.10;;
4084;SDS011;2057;50.858;6.572;2022-12-07T02:02:26;46.45;;;25.73;;
4084;SDS011;2057;50.858;6.572;2022-12-07T02:04:56;39.40;;;24.33;;
4084;SDS011;2057;50.858;6.572;2022-12-07T02:07:23;42.35;;;25.55;;
4084;SDS011;2057;50.858;6.572;2022-12-07T02:09:50;46.00;;;24.80;;
4084;SDS011;2057;50.858;6.572;2022-12-07T02:12:15;41.00;;;25.80;;
4084;SDS011;2057;50.858;6.572;2022-12-07T02:14:41;51.23;;;27.07;;
4084;SDS011;2057;50.858;6.572;2022-12-07T02:28:03;58.10;;;26.65;;
4084;SDS011;2057;50.858;6.572;2022-12-07T02:30:35;45.90;;;25.38;;
4084;SDS011;2057;50.858;6.572;2022-12-07T02:33:11;54.78;;;29.35;;
4084;SDS011;2057;50.858;6.572;2022-12-07T02:35:43;41.13;;;25.98;;
4084;SDS011;2057;50.858;6.572;2022-12-07T02:43:16;40.20;;;28.40;;
4084;SDS011;2057;50.858;6.572;2022-12-07T02:45:47;47.25;;;26.65;;
4084;SDS011;2057;50.858;6.572;2022-12-07T02:48:15;45.38;;;28.33;;
4084;SDS011;2057;50.858;6.572;2022-12-07T02:50:48;49.20;;;28.60;;
4084;SDS011;2057;50.858;6.572;2022-12-07T02:53:31;54.40;;;28.27;;
4084;SDS011;2057;50.858;6.572;2022-12-07T03:02:04;50.47;;;29.58;;
4084;SDS011;2057;50.858;6.572;2022-12-07T03:05:02;51.25;;;29.80;;
4084;SDS011;2057;50.858;6.572;2022-12-07T03:10:09;57.38;;;30.00;;
4084;SDS011;2057;50.858;6.572;2022-12-07T03:15:47;50.35;;;30.50;;
4084;SDS011;2057;50.858;6.572;2022-12-07T03:18:21;60.80;;;30.60;;
4084;SDS011;2057;50.858;6.572;2022-12-07T03:20:50;45.45;;;29.27;;
4084;SDS011;2057;50.858;6.572;2022-12-07T03:23:18;55.05;;;32.00;;
4084;SDS011;2057;50.858;6.572;2022-12-07T03:25:47;50.40;;;29.63;;
4084;SDS011;2057;50.858;6.572;2022-12-07T03:28:18;50.22;;;31.02;;
4084;SDS011;2057;50.858;6.572;2022-12-07T03:30:47;61.78;;;29.98;;
4084;SDS011;2057;50.858;6.572;2022-12-07T03:33:22;51.72;;;30.20;;
4084;SDS011;2057;50.858;6.572;2022-12-07T03:36:04;47.65;;;28.60;;
4084;SDS011;2057;50.858;6.572;2022-12-07T03:38:45;57.17;;;32.08;;
4084;SDS011;2057;50.858;6.572;2022-12-07T03:41:20;45.97;;;29.25;;
4084;SDS011;2057;50.858;6.572;2022-12-07T03:43:48;57.63;;;29.67;;
4084;SDS011;2057;50.858;6.572;2022-12-07T03:46:17;52.47;;;29.30;;
4084;SDS011;2057;50.858;6.572;2022-12-07T03:49:00;55.53;;;27.50;;
4084;SDS011;2057;50.858;6.572;2022-12-07T03:51:43;47.25;;;27.65;;
4084;SDS011;2057;50.858;6.572;2022-12-07T03:54:19;47.38;;;27.25;;
4084;SDS011;2057;50.858;6.572;2022-12-07T03:56:51;53.90;;;27.88;;
4084;SDS011;2057;50.858;6.572;2022-12-07T03:59:19;47.40;;;27.85;;
4084;SDS011;2057;50.858;6.572;2022-12-07T04:01:48;45.63;;;26.77;;
4084;SDS011;2057;50.858;6.572;2022-12-07T04:04:18;45.90;;;27.42;;
4084;SDS011;2057;50.858;6.572;2022-12-07T04:06:43;58.30;;;28.83;;
4084;SDS011;2057;50.858;6.572;2022-12-07T04:09:08;56.70;;;29.17;;
4084;SDS011;2057;50.858;6.572;2022-12-07T04:11:34;58.27;;;29.23;;
4084;SDS011;2057;50.858;6.572;2022-12-07T04:13:59;47.40;;;28.47;;
4084;SDS011;2057;50.858;6.572;2022-12-07T04:19:11;45.08;;;25.25;;
4084;SDS011;2057;50.858;6.572;2022-12-07T04:21:37;56.00;;;28.73;;
4084;SDS011;2057;50.858;6.572;2022-12-07T04:24:02;55.77;;;28.97;;
4084;SDS011;2057;50.858;6.572;2022-12-07T04:26:31;50.88;;;28.52;;
4084;SDS011;2057;50.858;6.572;2022-12-07T04:28:56;57.15;;;29.67;;
4084;SDS011;2057;50.858;6.572;2022-12-07T04:31:21;61.20;;;28.27;;
4084;SDS011;2057;50.858;6.572;2022-12-07T04:33:49;53.10;;;28.50;;
4084;SDS011;2057;50.858;6.572;2022-12-07T04:36:15;58.47;;;29.30;;
4084;SDS011;2057;50.858;6.572;2022-12-07T04:38:40;44.03;;;26.30;;
4084;SDS011;2057;50.858;6.572;2022-12-07T04:41:08;56.67;;;28.48;;
4084;SDS011;2057;50.858;6.572;2022-12-07T04:43:36;50.25;;;28.83;;
4084;SDS011;2057;50.858;6.572;2022-12-07T04:46:01;55.27;;;29.17;;
4084;SDS011;2057;50.858;6.572;2022-12-07T04:48:27;49.63;;;28.07;;
4084;SDS011;2057;50.858;6.572;2022-12-07T04:50:53;58.07;;;28.83;;
4084;SDS011;2057;50.858;6.572;2022-12-07T04:53:18;47.47;;;28.60;;
4084;SDS011;2057;50.858;6.572;2022-12-07T04:55:45;44.13;;;27.00;;
4084;SDS011;2057;50.858;6.572;2022-12-07T04:58:11;53.00;;;30.35;;
4084;SDS011;2057;50.858;6.572;2022-12-07T05:00:37;58.67;;;28.75;;
4084;SDS011;2057;50.858;6.572;2022-12-07T05:03:03;52.50;;;28.23;;
4084;SDS011;2057;50.858;6.572;2022-12-07T05:05:28;59.27;;;27.43;;
4084;SDS011;2057;50.858;6.572;2022-12-07T05:07:53;56.03;;;27.67;;
4084;SDS011;2057;50.858;6.572;2022-12-07T05:10:25;56.03;;;29.45;;
4084;SDS011;2057;50.858;6.572;2022-12-07T05:12:50;58.25;;;27.20;;
4084;SDS011;2057;50.858;6.572;2022-12-07T05:15:15;65.20;;;30.20;;
4084;SDS011;2057;50.858;6.572;2022-12-07T05:17:41;50.73;;;28.53;;
4084;SDS011;2057;50.858;6.572;2022-12-07T05:20:07;51.63;;;27.80;;
4084;SDS011;2057;50.858;6.572;2022-12-07T05:22:33;63.60;;;31.75;;
4084;SDS011;2057;50.858;6.572;2022-12-07T05:24:58;52.10;;;28.80;;
4084;SDS011;2057;50.858;6.572;2022-12-07T05:27:24;55.67;;;30.53;;
4084;SDS011;2057;50.858;6.572;2022-12-07T05:29:51;51.35;;;26.17;;
4084;SDS011;2057;50.858;6.572;2022-12-07T05:32:17;43.50;;;26.40;;
4084;SDS011;2057;50.858;6.572;2022-12-07T05:34:44;48.45;;;26.88;;
4084;SDS011;2057;50.858;6.572;2022-12-07T05:37:10;56.70;;;27.77;;
4084;SDS011;2057;50.858;6.572;2022-12-07T05:39:35;48.47;;;25.80;;
4084;SDS011;2057;50.858;6.572;2022-12-07T05:42:02;62.95;;;28.75;;
4084;SDS011;2057;50.858;6.572;2022-12-07T05:44:46;57.15;;;28.33;;
4084;SDS011;2057;50.858;6.572;2022-12-07T05:47:12;61.45;;;27.75;;
4084;SDS011;2057;50.858;6.572;2022-12-07T05:49:39;49.78;;;26.55;;
4084;SDS011;2057;50.858;6.572;2022-12-07T05:52:04;55.63;;;27.60;;
4084;SDS011;2057;50.858;6.572;2022-12-07T05:54:30;42.80;;;26.00;;
4084;SDS011;2057;50.858;6.572;2022-12-07T05:56:55;47.43;;;25.73;;
4084;SDS011;2057;50.858;6.572;2022-12-07T05:59:21;43.63;;;25.43;;
4084;SDS011;2057;50.858;6.572;2022-12-07T06:04:23;47.97;;;26.00;;
4084;SDS011;2057;50.858;6.572;2022-12-07T06:06:49;49.28;;;26.25;;
4084;SDS011;2057;50.858;6.572;2022-12-07T06:09:15;41.60;;;23.90;;
4084;SDS011;2057;50.858;6.572;2022-12-07T06:11:43;47.10;;;26.70;;
4084;SDS011;2057;50.858;6.572;2022-12-07T06:14:27;46.20;;;26.15;;
4084;SDS011;2057;50.858;6.572;2022-12-07T06:16:52;48.83;;;26.00;;
4084;SDS011;2057;50.858;6.572;2022-12-07T06:19:17;45.67;;;26.53;;
4084;SDS011;2057;50.858;6.572;2022-12-07T06:21:43;51.87;;;26.63;;
4084;SDS011;2057;50.858;6.572;2022-12-07T06:24:11;60.40;;;27.10;;
4084;SDS011;2057;50.858;6.572;2022-12-07T06:26:38;49.33;;;25.90;;
4084;SDS011;2057;50.858;6.572;2022-12-07T06:29:04;59.40;;;27.33;;
4084;SDS011;2057;50.858;6.572;2022-12-07T06:31:29;46.20;;;28.60;;
4084;SDS011;2057;50.858;6.572;2022-12-07T06:33:58;54.53;;;27.80;;
4084;SDS011;2057;50.858;6.572;2022-12-07T06:36:28;50.45;;;27.85;;
4084;SDS011;2057;50.858;6.572;2022-12-07T06:38:54;59.03;;;26.40;;
4084;SDS011;2057;50.858;6.572;2022-12-07T06:41:22;70.50;;;28.48;;
4084;SDS011;2057;50.858;6.572;2022-12-07T06:43:48;59.03;;;26.92;;
4084;SDS011;2057;50.858;6.572;2022-12-07T06:46:14;57.13;;;25.03;;
4084;SDS011;2057;50.858;6.572;2022-12-07T06:48:41;58.38;;;28.23;;
4084;SDS011;2057;50.858;6.572;2022-12-07T06:51:09;51.67;;;26.30;;
4084;SDS011;2057;50.858;6.572;2022-12-07T06:53:35;45.70;;;23.63;;
4084;SDS011;2057;50.858;6.572;2022-12-07T06:56:01;45.50;;;24.15;;
4084;SDS011;2057;50.858;6.572;2022-12-07T06:58:27;45.53;;;25.07;;
4084;SDS011;2057;50.858;6.572;2022-12-07T07:00:52;40.53;;;22.77;;
4084;SDS011;2057;50.858;6.572;2022-12-07T07:03:18;43.42;;;23.45;;
4084;SDS011;2057;50.858;6.572;2022-12-07T07:05:44;36.93;;;20.40;;
4084;SDS011;2057;50.858;6.572;2022-12-07T07:08:10;39.87;;;21.27;;
4084;SDS011;2057;50.858;6.572;2022-12-07T07:10:36;48.10;;;22.00;;
4084;SDS011;2057;50.858;6.572;2022-12-07T07:13:02;37.63;;;22.37;;
4084;SDS011;2057;50.858;6.572;2022-12-07T07:15:28;44.33;;;23.15;;
4084;SDS011;2057;50.858;6.572;2022-12-07T07:17:53;40.90;;;21.60;;
4084;SDS011;2057;50.858;6.572;2022-12-07T07:20:19;42.57;;;23.70;;
4084;SDS011;2057;50.858;6.572;2022-12-07T07:22:44;41.13;;;22.57;;
4084;SDS011;2057;50.858;6.572;2022-12-07T07:25:10;40.37;;;21.50;;
4084;SDS011;2057;50.858;6.572;2022-12-07T07:27:35;45.17;;;22.37;;
4084;SDS011;2057;50.858;6.572;2022-12-07T07:30:00;38.20;;;21.47;;
4084;SDS011;2057;50.858;6.572;2022-12-07T07:32:26;41.63;;;20.50;;
4084;SDS011;2057;50.858;6.572;2022-12-07T07:34:51;34.80;;;20.43;;
4084;SDS011;2057;50.858;6.572;2022-12-07T07:37:16;34.77;;;19.83;;
4084;SDS011;2057;50.858;6.572;2022-12-07T07:39:42;39.93;;;20.87;;
4084;SDS011;2057;50.858;6.572;2022-12-07T07:42:07;41.73;;;21.20;;
4084;SDS011;2057;50.858;6.572;2022-12-07T07:44:33;45.00;;;22.37;;
4084;SDS011;2057;50.858;6.572;2022-12-07T07:46:59;43.33;;;22.02;;
4084;SDS011;2057;50.858;6.572;2022-12-07T07:49:24;50.97;;;22.60;;
4084;SDS011;2057;50.858;6.572;2022-12-07T07:51:50;42.10;;;23.37;;
4084;SDS011;2057;50.858;6.572;2022-12-07T07:54:15;45.93;;;22.10;;
4084;SDS011;2057;50.858;6.572;2022-12-07T07:56:41;37.97;;;20.83;;
4084;SDS011;2057;50.858;6.572;2022-12-07T07:59:06;40.67;;;23.00;;
4084;SDS011;2057;50.858;6.572;2022-12-07T08:01:31;45.37;;;21.57;;
4084;SDS011;2057;50.858;6.572;2022-12-07T08:03:57;36.27;;;20.70;;
4084;SDS011;2057;50.858;6.572;2022-12-07T08:06:22;50.87;;;26.63;;
4084;SDS011;2057;50.858;6.572;2022-12-07T08:08:47;46.20;;;23.33;;
4084;SDS011;2057;50.858;6.572;2022-12-07T08:11:12;41.90;;;21.00;;
4084;SDS011;2057;50.858;6.572;2022-12-07T08:13:38;38.40;;;21.73;;
4084;SDS011;2057;50.858;6.572;2022-12-07T08:16:07;47.10;;;21.53;;
4084;SDS011;2057;50.858;6.572;2022-12-07T08:18:35;43.50;;;22.52;;
4084;SDS011;2057;50.858;6.572;2022-12-07T08:21:01;65.72;;;25.08;;
4084;SDS011;2057;50.858;6.572;2022-12-07T08:23:28;50.22;;;23.75;;
4084;SDS011;2057;50.858;6.572;2022-12-07T08:25:54;43.00;;;21.10;;
4084;SDS011;2057;50.858;6.572;2022-12-07T08:28:19;54.57;;;23.40;;
4084;SDS011;2057;50.858;6.572;2022-12-07T08:30:45;47.47;;;24.30;;
4084;SDS011;2057;50.858;6.572;2022-12-07T08:33:12;58.60;;;23.90;;
4084;SDS011;2057;50.858;6.572;2022-12-07T08:35:38;52.33;;;24.53;;
4084;SDS011;2057;50.858;6.572;2022-12-07T08:38:03;42.53;;;23.40;;
4084;SDS011;2057;50.858;6.572;2022-12-07T08:40:28;63.67;;;22.90;;
4084;SDS011;2057;50.858;6.572;2022-12-07T08:42:55;47.10;;;24.48;;
4084;SDS011;2057;50.858;6.572;2022-12-07T08:45:20;51.00;;;24.57;;
4084;SDS011;2057;50.858;6.572;2022-12-07T08:50:17;48.88;;;24.15;;
4084;SDS011;2057;50.858;6.572;2022-12-07T08:52:43;55.73;;;26.23;;
4084;SDS011;2057;50.858;6.572;2022-12-07T08:55:11;69.30;;;29.17;;
4084;SDS011;2057;50.858;6.572;2022-12-07T08:57:38;52.67;;;25.17;;
4084;SDS011;2057;50.858;6.572;2022-12-07T09:00:07;53.83;;;27.05;;
4084;SDS011;2057;50.858;6.572;2022-12-07T09:02:32;82.68;;;35.00;;
4084;SDS011;2057;50.858;6.572;2022-12-07T09:05:01;70.10;;;29.07;;
4084;SDS011;2057;50.858;6.572;2022-12-07T09:07:26;65.63;;;29.02;;
4084;SDS011;2057;50.858;6.572;2022-12-07T09:09:52;50.03;;;25.58;;
4084;SDS011;2057;50.858;6.572;2022-12-07T09:12:17;46.30;;;25.40;;
4084;SDS011;2057;50.858;6.572;2022-12-07T09:14:43;49.47;;;25.20;;
4084;SDS011;2057;50.858;6.572;2022-12-07T09:17:09;58.83;;;24.27;;
4084;SDS011;2057;50.858;6.572;2022-12-07T09:19:35;48.22;;;27.33;;
4084;SDS011;2057;50.858;6.572;2022-12-07T09:22:01;52.87;;;26.67;;
4084;SDS011;2057;50.858;6.572;2022-12-07T09:24:29;56.60;;;26.67;;
4084;SDS011;2057;50.858;6.572;2022-12-07T09:26:55;54.27;;;27.67;;
4084;SDS011;2057;50.858;6.572;2022-12-07T09:29:20;59.57;;;29.23;;
4084;SDS011;2057;50.858;6.572;2022-12-07T09:31:45;57.53;;;28.40;;
4084;SDS011;2057;50.858;6.572;2022-12-07T09:34:11;55.63;;;28.50;;
4084;SDS011;2057;50.858;6.572;2022-12-07T09:36:36;50.73;;;26.50;;
4084;SDS011;2057;50.858;6.572;2022-12-07T09:39:02;51.23;;;27.13;;
4084;SDS011;2057;50.858;6.572;2022-12-07T09:41:30;52.75;;;25.75;;
4084;SDS011;2057;50.858;6.572;2022-12-07T09:44:04;41.83;;;23.17;;
4084;SDS011;2057;50.858;6.572;2022-12-07T09:46:36;56.70;;;23.38;;
4084;SDS011;2057;50.858;6.572;2022-12-07T09:49:04;36.95;;;21.17;;
4084;SDS011;2057;50.858;6.572;2022-12-07T09:51:30;34.22;;;18.17;;
4084;SDS011;2057;50.858;6.572;2022-12-07T09:53:56;32.83;;;19.55;;
4084;SDS011;2057;50.858;6.572;2022-12-07T09:56:23;30.98;;;17.13;;
4084;SDS011;2057;50.858;6.572;2022-12-07T09:58:50;42.20;;;20.60;;
4084;SDS011;2057;50.858;6.572;2022-12-07T10:01:22;45.25;;;20.10;;
4084;SDS011;2057;50.858;6.572;2022-12-07T10:03:55;40.43;;;18.07;;
4084;SDS011;2057;50.858;6.572;2022-12-07T10:06:26;29.95;;;15.95;;
4084;SDS011;2057;50.858;6.572;2022-12-07T10:08:51;24.03;;;14.90;;
4084;SDS011;2057;50.858;6.572;2022-12-07T10:11:17;31.20;;;15.30;;
4084;SDS011;2057;50.858;6.572;2022-12-07T10:13:43;23.13;;;14.20;;
4084;SDS011;2057;50.858;6.572;2022-12-07T10:18:55;29.65;;;15.02;;
4084;SDS011;2057;50.858;6.572;2022-12-07T10:21:24;19.73;;;13.10;;
4084;SDS011;2057;50.858;6.572;2022-12-07T10:26:38;15.82;;;11.80;;
4084;SDS011;2057;50.858;6.572;2022-12-07T10:29:24;25.65;;;13.60;;
4084;SDS011;2057;50.858;6.572;2022-12-07T10:34:32;35.83;;;15.18;;
4084;SDS011;2057;50.858;6.572;2022-12-07T10:37:33;44.33;;;15.48;;
4084;SDS011;2057;50.858;6.572;2022-12-07T10:39:53;46.50;;;13.45;;
4084;SDS011;2057;50.858;6.572;2022-12-07T10:47:48;29.77;;;14.93;;
4084;SDS011;2057;50.858;6.572;2022-12-07T10:53:25;26.38;;;15.95;;
4084;SDS011;2057;50.858;6.572;2022-12-07T11:12:28;43.33;;;21.33;;
4084;SDS011;2057;50.858;6.572;2022-12-07T11:15:24;38.47;;;20.67;;
4084;SDS011;2057;50.858;6.572;2022-12-07T11:18:06;34.38;;;19.02;;
4084;SDS011;2057;50.858;6.572;2022-12-07T11:21:04;41.58;;;19.60;;
4084;SDS011;2057;50.858;6.572;2022-12-07T11:27:07;34.03;;;18.05;;
4084;SDS011;2057;50.858;6.572;2022-12-07T11:32:17;30.02;;;12.95;;
4084;SDS011;2057;50.858;6.572;2022-12-07T11:37:44;26.10;;;12.77;;
4084;SDS011;2057;50.858;6.572;2022-12-07T11:42:50;29.85;;;14.90;;
4084;SDS011;2057;50.858;6.572;2022-12-07T11:45:26;35.28;;;13.00;;
4084;SDS011;2057;50.858;6.572;2022-12-07T11:50:45;26.55;;;15.55;;
4084;SDS011;2057;50.858;6.572;2022-12-07T11:53:23;25.33;;;17.10;;
4084;SDS011;2057;50.858;6.572;2022-12-07T11:55:56;37.85;;;17.20;;
4084;SDS011;2057;50.858;6.572;2022-12-07T12:01:24;43.38;;;17.55;;
4084;SDS011;2057;50.858;6.572;2022-12-07T12:03:52;29.27;;;16.52;;
4084;SDS011;2057;50.858;6.572;2022-12-07T12:06:25;35.45;;;18.08;;
4084;SDS011;2057;50.858;6.572;2022-12-07T12:09:04;32.17;;;17.88;;
4084;SDS011;2057;50.858;6.572;2022-12-07T12:23:11;35.70;;;15.38;;
4084;SDS011;2057;50.858;6.572;2022-12-07T12:25:39;28.25;;;14.10;;
4084;SDS011;2057;50.858;6.572;2022-12-07T12:28:15;27.13;;;14.25;;
4084;SDS011;2057;50.858;6.572;2022-12-07T12:30:47;29.27;;;15.07;;
4084;SDS011;2057;50.858;6.572;2022-12-07T12:33:30;25.45;;;15.70;;
4084;SDS011;2057;50.858;6.572;2022-12-07T12:46:58;25.45;;;14.93;;
4084;SDS011;2057;50.858;6.572;2022-12-07T12:49:33;26.42;;;15.43;;
4084;SDS011;2057;50.858;6.572;2022-12-07T12:55:02;29.83;;;14.15;;
4084;SDS011;2057;50.858;6.572;2022-12-07T12:57:37;22.50;;;14.52;;
4084;SDS011;2057;50.858;6.572;2022-12-07T13:02:50;34.75;;;14.55;;
4084;SDS011;2057;50.858;6.572;2022-12-07T13:05:25;23.05;;;12.27;;
4084;SDS011;2057;50.858;6.572;2022-12-07T13:08:13;29.30;;;14.40;;
4084;SDS011;2057;50.858;6.572;2022-12-07T13:10:41;25.70;;;11.45;;
4084;SDS011;2057;50.858;6.572;2022-12-07T13:15:37;28.53;;;13.20;;
4084;SDS011;2057;50.858;6.572;2022-12-07T13:18:55;17.40;;;12.27;;
4084;SDS011;2057;50.858;6.572;2022-12-07T13:23:35;26.02;;;11.30;;
4084;SDS011;2057;50.858;6.572;2022-12-07T13:29:29;17.48;;;12.55;;
4084;SDS011;2057;50.858;6.572;2022-12-07T13:31:46;27.60;;;11.13;;
4084;SDS011;2057;50.858;6.572;2022-12-07T13:36:58;20.90;;;11.40;;
4084;SDS011;2057;50.858;6.572;2022-12-07T13:39:27;21.77;;;12.65;;
4084;SDS011;2057;50.858;6.572;2022-12-07T13:44:23;20.25;;;10.15;;
4084;SDS011;2057;50.858;6.572;2022-12-07T13:49:45;19.70;;;9.85;;
4084;SDS011;2057;50.858;6.572;2022-12-07T13:52:16;16.23;;;10.00;;
4084;SDS011;2057;50.858;6.572;2022-12-07T13:55:32;16.10;;;9.98;;
4084;SDS011;2057;50.858;6.572;2022-12-07T13:57:39;14.20;;;9.45;;
4084;SDS011;2057;50.858;6.572;2022-12-07T14:00:14;34.33;;;11.37;;
4084;SDS011;2057;50.858;6.572;2022-12-07T14:05:39;25.90;;;10.77;;
4084;SDS011;2057;50.858;6.572;2022-12-07T14:10:36;22.73;;;10.60;;
4084;SDS011;2057;50.858;6.572;2022-12-07T14:13:21;24.02;;;12.80;;
4084;SDS011;2057;50.858;6.572;2022-12-07T14:15:54;28.20;;;12.50;;
4084;SDS011;2057;50.858;6.572;2022-12-07T14:18:40;13.25;;;8.23;;
4084;SDS011;2057;50.858;6.572;2022-12-07T14:23:34;28.17;;;11.05;;
4084;SDS011;2057;50.858;6.572;2022-12-07T14:26:06;16.67;;;8.65;;
4084;SDS011;2057;50.858;6.572;2022-12-07T14:28:44;13.50;;;9.23;;
4084;SDS011;2057;50.858;6.572;2022-12-07T14:31:11;20.70;;;9.00;;
4084;SDS011;2057;50.858;6.572;2022-12-07T14:33:41;29.20;;;9.90;;
4084;SDS011;2057;50.858;6.572;2022-12-07T14:36:08;18.97;;;9.27;;
4084;SDS011;2057;50.858;6.572;2022-12-07T14:38:35;29.80;;;9.93;;
4084;SDS011;2057;50.858;6.572;2022-12-07T14:41:01;34.17;;;9.40;;
4084;SDS011;2057;50.858;6.572;2022-12-07T14:43:45;16.58;;;8.70;;
4084;SDS011;2057;50.858;6.572;2022-12-07T14:46:10;13.13;;;8.33;;
4084;SDS011;2057;50.858;6.572;2022-12-07T14:48:36;17.17;;;8.20;;
4084;SDS011;2057;50.858;6.572;2022-12-07T14:51:01;15.10;;;7.77;;
4084;SDS011;2057;50.858;6.572;2022-12-07T14:53:30;17.70;;;7.68;;
4084;SDS011;2057;50.858;6.572;2022-12-07T14:56:00;21.80;;;9.20;;
4084;SDS011;2057;50.858;6.572;2022-12-07T14:58:26;20.90;;;8.60;;
4084;SDS011;2057;50.858;6.572;2022-12-07T15:00:51;14.50;;;8.80;;
4084;SDS011;2057;50.858;6.572;2022-12-07T15:03:16;12.50;;;7.90;;
4084;SDS011;2057;50.858;6.572;2022-12-07T15:05:42;15.10;;;9.93;;
4084;SDS011;2057;50.858;6.572;2022-12-07T15:08:10;21.43;;;9.20;;
4084;SDS011;2057;50.858;6.572;2022-12-07T15:10:40;21.38;;;11.05;;
4084;SDS011;2057;50.858;6.572;2022-12-07T15:13:05;24.83;;;10.43;;
4084;SDS011;2057;50.858;6.572;2022-12-07T15:15:50;18.42;;;9.35;;
4084;SDS011;2057;50.858;6.572;2022-12-07T15:18:17;31.73;;;9.73;;
4084;SDS011;2057;50.858;6.572;2022-12-07T15:20:43;18.33;;;9.70;;
4084;SDS011;2057;50.858;6.572;2022-12-07T15:23:09;23.53;;;11.20;;
4084;SDS011;2057;50.858;6.572;2022-12-07T15:25:35;19.52;;;11.38;;
4084;SDS011;2057;50.858;6.572;2022-12-07T15:28:00;18.07;;;9.37;;
4084;SDS011;2057;50.858;6.572;2022-12-07T15:30:26;21.17;;;11.13;;
4084;SDS011;2057;50.858;6.572;2022-12-07T15:32:52;21.97;;;10.60;;
4084;SDS011;2057;50.858;6.572;2022-12-07T15:35:20;28.65;;;11.43;;
4084;SDS011;2057;50.858;6.572;2022-12-07T15:37:46;26.17;;;11.87;;
4084;SDS011;2057;50.858;6.572;2022-12-07T15:40:12;18.13;;;10.43;;
4084;SDS011;2057;50.858;6.572;2022-12-07T15:42:38;18.45;;;9.40;;
4084;SDS011;2057;50.858;6.572;2022-12-07T15:45:05;27.23;;;10.80;;
4084;SDS011;2057;50.858;6.572;2022-12-07T15:47:37;18.35;;;11.23;;
4084;SDS011;2057;50.858;6.572;2022-12-07T15:50:06;26.33;;;12.80;;
4084;SDS011;2057;50.858;6.572;2022-12-07T15:52:33;23.25;;;11.88;;
4084;SDS011;2057;50.858;6.572;2022-12-07T15:54:59;20.80;;;11.80;;
4084;SDS011;2057;50.858;6.572;2022-12-07T15:57:34;16.65;;;12.35;;
4084;SDS011;2057;50.858;6.572;2022-12-07T16:00:02;31.55;;;12.20;;
4084;SDS011;2057;50.858;6.572;2022-12-07T16:02:29;21.90;;;11.80;;
4084;SDS011;2057;50.858;6.572;2022-12-07T16:04:54;35.23;;;13.20;;
4084;SDS011;2057;50.858;6.572;2022-12-07T16:07:20;19.00;;;11.70;;
4084;SDS011;2057;50.858;6.572;2022-12-07T16:09:45;20.57;;;13.20;;
4084;SDS011;2057;50.858;6.572;2022-12-07T16:12:12;25.05;;;13.82;;
4084;SDS011;2057;50.858;6.572;2022-12-07T16:14:40;18.50;;;11.90;;
4084;SDS011;2057;50.858;6.572;2022-12-07T16:17:06;24.57;;;13.07;;
4084;SDS011;2057;50.858;6.572;2022-12-07T16:19:33;21.60;;;13.93;;
4084;SDS011;2057;50.858;6.572;2022-12-07T16:21:59;14.80;;;12.48;;
4084;SDS011;2057;50.858;6.572;2022-12-07T16:24:28;19.48;;;12.50;;
4084;SDS011;2057;50.858;6.572;2022-12-07T16:26:53;35.57;;;11.73;;
4084;SDS011;2057;50.858;6.572;2022-12-07T16:29:19;23.63;;;12.00;;
4084;SDS011;2057;50.858;6.572;2022-12-07T16:31:46;23.55;;;12.75;;
4084;SDS011;2057;50.858;6.572;2022-12-07T16:34:11;27.20;;;12.90;;
4084;SDS011;2057;50.858;6.572;2022-12-07T16:36:37;24.10;;;12.53;;
4084;SDS011;2057;50.858;6.572;2022-12-07T16:39:03;34.57;;;13.50;;
4084;SDS011;2057;50.858;6.572;2022-12-07T16:41:29;19.15;;;11.30;;
4084;SDS011;2057;50.858;6.572;2022-12-07T16:43:54;32.17;;;11.97;;
4084;SDS011;2057;50.858;6.572;2022-12-07T16:46:20;20.13;;;11.13;;
4084;SDS011;2057;50.858;6.572;2022-12-07T16:48:45;15.90;;;9.83;;
4084;SDS011;2057;50.858;6.572;2022-12-07T16:51:11;20.10;;;11.10;;
4084;SDS011;2057;50.858;6.572;2022-12-07T16:53:40;22.23;;;11.05;;
4084;SDS011;2057;50.858;6.572;2022-12-07T16:56:13;18.27;;;10.75;;
4084;SDS011;2057;50.858;6.572;2022-12-07T16:58:45;17.90;;;9.52;;
4084;SDS011;2057;50.858;6.572;2022-12-07T17:01:14;23.02;;;9.32;;
4084;SDS011;2057;50.858;6.572;2022-12-07T17:03:44;18.42;;;11.70;;
4084;SDS011;2057;50.858;6.572;2022-12-07T17:06:12;21.77;;;11.77;;
4084;SDS011;2057;50.858;6.572;2022-12-07T17:08:38;13.75;;;9.73;;
4084;SDS011;2057;50.858;6.572;2022-12-07T17:11:03;28.53;;;10.93;;
4084;SDS011;2057;50.858;6.572;2022-12-07T17:13:35;20.88;;;11.10;;
4084;SDS011;2057;50.858;6.572;2022-12-07T17:16:18;22.73;;;11.20;;
4084;SDS011;2057;50.858;6.572;2022-12-07T17:18:44;21.10;;;14.80;;